Terminal Aerodrome Forecast
Issued by NWS

Home | Current Version | Previous Version | Text Only | Print | Product List | Glossary On
Versions: 1 2 3 4 5 6 7 8 9 10 11 12 13 14 15 16 17 18 19 20 21 22 23 24
000
FTUS45 KGJT 301726
TAFVEL
TAF
KVEL 301726Z 3018/3118 35004KT P6SM BKN150
     FM302100 21007KT P6SM SCT120 BKN150
     FM310000 24008KT P6SM BKN150
     FM310600 26004KT P6SM SCT150
     FM311600 17004KT P6SM SCT200=

USA.gov is the U.S. government's official web portal to all federal, state and local government web resources and services.